createdAt,value
2023-01-29T00:01:59.153Z,8.57
2023-01-29T00:05:45.900Z,9.02
2023-01-29T00:15:28.343Z,8.67
2023-01-29T00:18:32.467Z,8.50
2023-01-29T00:21:03.925Z,8.82
2023-01-29T00:23:48.635Z,8.65
2023-01-29T00:26:30.115Z,8.35
2023-01-29T00:29:16.424Z,8.83
2023-01-29T00:31:53.877Z,9.10
2023-01-29T00:34:46.385Z,9.60
2023-01-29T00:37:36.333Z,8.50
2023-01-29T00:40:09.444Z,8.23
2023-01-29T00:43:05.221Z,8.50
2023-01-29T00:45:40.287Z,8.27
2023-01-29T00:48:18.979Z,7.82
2023-01-29T00:50:53.468Z,8.68
2023-01-29T00:53:20.336Z,8.70
2023-01-29T00:55:51.747Z,8.63
2023-01-29T00:58:28.557Z,9.05
2023-01-29T01:04:24.304Z,9.80
2023-01-29T01:10:18.466Z,8.00
2023-01-29T01:12:51.070Z,7.95
2023-01-29T01:15:20.385Z,8.05
2023-01-29T01:17:49.021Z,8.38
2023-01-29T01:20:18.792Z,8.65
2023-01-29T01:25:44.818Z,9.60
2023-01-29T01:28:18.436Z,8.85
2023-01-29T01:30:49.628Z,8.30
2023-01-29T01:33:19.801Z,9.13
2023-01-29T01:35:54.092Z,9.23
2023-01-29T01:38:21.015Z,8.50
2023-01-29T01:40:51.525Z,9.55
2023-01-29T01:43:19.552Z,8.77
2023-01-29T01:45:53.044Z,8.63
2023-01-29T01:48:28.053Z,8.07
2023-01-29T01:51:08.979Z,8.07
2023-01-29T01:54:07.109Z,8.63
2023-01-29T01:56:46.291Z,8.05
2023-01-29T01:59:22.531Z,7.80
2023-01-29T02:01:56.396Z,8.03
2023-01-29T02:04:47.493Z,8.10
2023-01-29T02:07:37.169Z,8.38
2023-01-29T02:10:10.340Z,8.02
2023-01-29T02:12:39.239Z,8.50
2023-01-29T02:15:14.351Z,8.03
2023-01-29T02:18:04.857Z,8.07
2023-01-29T02:20:35.862Z,9.07
2023-01-29T02:23:40.043Z,8.80
2023-01-29T02:26:28.675Z,8.57
2023-01-29T02:29:22.939Z,8.97
2023-01-29T02:33:23.174Z,8.73
2023-01-29T02:42:34.711Z,8.68
2023-01-29T02:45:44.281Z,7.80
2023-01-29T02:48:44.521Z,8.55
2023-01-29T02:51:35.669Z,8.32
2023-01-29T02:57:53.049Z,8.80
2023-01-29T03:00:28.266Z,8.60
2023-01-29T03:03:34.937Z,8.90
2023-01-29T03:06:18.458Z,9.55
2023-01-29T03:08:56.285Z,9.23
2023-01-29T03:11:35.698Z,8.23
2023-01-29T03:15:08.075Z,8.27
2023-01-29T03:18:09.996Z,8.50
2023-01-29T03:21:29.525Z,8.18
2023-01-29T03:28:22.982Z,8.07
2023-01-29T03:31:35.247Z,8.30
2023-01-29T03:34:47.488Z,8.65
2023-01-29T03:37:35.704Z,8.02
2023-01-29T03:41:05.409Z,8.60
2023-01-29T03:44:00.262Z,8.50
2023-01-29T03:47:07.428Z,7.97
2023-01-29T03:50:14.908Z,8.07
2023-01-29T03:53:00.202Z,8.93
2023-01-29T03:59:35.761Z,9.35
2023-01-29T04:02:28.030Z,7.73
2023-01-29T04:05:02.076Z,7.90
2023-01-29T04:07:36.743Z,8.27
2023-01-29T04:10:09.877Z,8.68
2023-01-29T04:12:43.157Z,8.43
2023-01-29T04:15:15.340Z,8.63
2023-01-29T04:17:52.764Z,8.35
2023-01-29T04:20:20.871Z,8.55
2023-01-29T04:22:49.744Z,7.47
2023-01-29T04:25:26.591Z,8.82
2023-01-29T04:28:13.762Z,7.40
2023-01-29T04:30:52.909Z,8.07
2023-01-29T04:33:44.122Z,6.57
2023-01-29T04:36:34.540Z,7.82
2023-01-29T04:39:07.302Z,8.02
2023-01-29T04:41:57.140Z,8.07
2023-01-29T04:44:31.547Z,8.18
2023-01-29T04:47:08.907Z,7.88
2023-01-29T04:49:59.132Z,7.18
2023-01-29T04:52:34.945Z,7.20
2023-01-29T04:55:17.701Z,6.90
2023-01-29T04:58:06.688Z,6.68
2023-01-29T05:00:38.605Z,7.05
2023-01-29T05:03:06.497Z,7.38
2023-01-29T05:05:33.266Z,7.20
2023-01-29T05:08:01.753Z,7.00
2023-01-29T05:10:29.395Z,7.32
2023-01-29T05:13:01.581Z,6.93
2023-01-29T05:15:40.809Z,6.30
2023-01-29T05:18:09.204Z,6.70
2023-01-29T05:20:41.912Z,7.67
2023-01-29T05:23:20.255Z,6.90
2023-01-29T05:25:48.135Z,6.70
2023-01-29T05:28:17.562Z,6.88
2023-01-29T05:30:46.996Z,7.30
2023-01-29T05:33:29.497Z,6.67
2023-01-29T05:35:58.255Z,6.85
2023-01-29T05:38:25.782Z,6.40
2023-01-29T05:40:52.308Z,6.55
2023-01-29T05:43:21.551Z,7.25
2023-01-29T05:45:56.754Z,7.17
2023-01-29T05:48:23.934Z,6.97
2023-01-29T05:50:53.175Z,6.90
2023-01-29T05:53:19.792Z,6.57
2023-01-29T05:55:50.520Z,6.68
2023-01-29T05:58:19.726Z,6.33
2023-01-29T06:00:46.654Z,7.07
2023-01-29T06:03:13.284Z,6.68
2023-01-29T06:05:40.548Z,6.57
2023-01-29T06:08:08.382Z,6.22
2023-01-29T06:10:35.196Z,6.40
2023-01-29T06:13:01.833Z,6.07
2023-01-29T06:15:28.440Z,5.97
2023-01-29T06:17:55.459Z,6.40
2023-01-29T06:20:25.387Z,6.00
2023-01-29T06:22:52.130Z,5.37
2023-01-29T06:25:18.796Z,6.18
2023-01-29T06:27:45.400Z,6.43
2023-01-29T06:30:15.921Z,6.10
2023-01-29T06:32:46.600Z,5.95
2023-01-29T06:35:15.777Z,6.40
2023-01-29T06:37:42.350Z,5.93
2023-01-29T06:40:09.720Z,5.68
2023-01-29T06:42:36.401Z,5.57
2023-01-29T06:45:03.177Z,5.40
2023-01-29T06:47:29.761Z,4.97
2023-01-29T06:49:59.032Z,5.93
2023-01-29T06:52:31.660Z,5.05
2023-01-29T06:54:58.192Z,5.25
2023-01-29T06:57:33.785Z,4.38
2023-01-29T07:00:00.577Z,4.80
2023-01-29T07:02:34.423Z,4.40
2023-01-29T07:05:03.912Z,4.25
2023-01-29T07:07:30.469Z,4.82
2023-01-29T07:09:57.044Z,4.90
2023-01-29T07:12:23.750Z,4.90
2023-01-29T07:15:22.863Z,4.72
2023-01-29T07:18:08.222Z,4.85
2023-01-29T07:20:41.904Z,5.10
2023-01-29T07:23:19.870Z,5.10
2023-01-29T07:25:46.775Z,4.80
2023-01-29T07:28:26.600Z,4.60
2023-01-29T07:31:02.327Z,5.55
2023-01-29T07:33:35.141Z,5.55
2023-01-29T07:36:04.348Z,5.80
2023-01-29T07:38:38.347Z,5.63
2023-01-29T07:41:10.623Z,5.18
2023-01-29T07:43:42.476Z,5.25
2023-01-29T07:46:13.343Z,5.85
2023-01-29T07:48:39.930Z,5.55
2023-01-29T07:51:06.583Z,4.97
2023-01-29T07:53:33.249Z,5.65
2023-01-29T07:56:02.895Z,5.63
2023-01-29T07:58:29.606Z,4.50
2023-01-29T08:01:01.523Z,6.55
2023-01-29T08:03:39.397Z,6.20
2023-01-29T08:06:06.521Z,5.88
2023-01-29T08:08:37.598Z,6.22
2023-01-29T08:11:05.749Z,5.97
2023-01-29T08:13:33.193Z,5.00
2023-01-29T08:16:04.354Z,4.47
2023-01-29T08:18:33.847Z,5.95
2023-01-29T08:21:04.142Z,5.75
2023-01-29T08:23:30.859Z,5.80
2023-01-29T08:25:57.580Z,6.07
2023-01-29T08:28:28.655Z,5.37
2023-01-29T08:31:02.006Z,5.45
2023-01-29T08:33:38.980Z,5.15
2023-01-29T08:36:06.781Z,5.43
2023-01-29T08:38:33.504Z,5.82
2023-01-29T08:41:00.288Z,4.57
2023-01-29T08:43:29.091Z,4.90
2023-01-29T08:45:57.868Z,4.80
2023-01-29T08:48:25.481Z,5.40
2023-01-29T08:50:52.286Z,4.35
2023-01-29T08:53:27.878Z,4.77
2023-01-29T08:55:54.832Z,3.80
2023-01-29T08:58:51.583Z,3.45
2023-01-29T09:01:20.518Z,4.43
2023-01-29T09:03:47.155Z,4.13
2023-01-29T09:06:14.860Z,4.47
2023-01-29T09:08:42.106Z,4.75
2023-01-29T09:11:09.179Z,4.28
2023-01-29T09:13:36.273Z,4.13
2023-01-29T09:16:04.259Z,3.40
2023-01-29T09:18:33.068Z,4.20
2023-01-29T09:21:02.827Z,4.55
2023-01-29T09:23:30.904Z,4.80
2023-01-29T09:25:59.641Z,4.93
2023-01-29T09:28:29.054Z,4.50
2023-01-29T09:32:10.725Z,4.90
2023-01-29T09:35:30.858Z,5.20
2023-01-29T09:37:54.391Z,4.82
2023-01-29T09:40:29.988Z,5.13
2023-01-29T09:43:25.757Z,7.03
2023-01-29T09:46:18.140Z,5.87
2023-01-29T09:51:56.559Z,5.22
2023-01-29T09:54:46.574Z,5.00
2023-01-29T09:57:25.383Z,5.03
2023-01-29T09:59:53.609Z,4.77
2023-01-29T10:06:00.489Z,2.95
2023-01-29T10:08:53.770Z,4.68
2023-01-29T10:11:38.086Z,4.70
2023-01-29T10:14:17.257Z,4.57
2023-01-29T10:17:18.423Z,4.65
2023-01-29T10:19:58.100Z,6.63
2023-01-29T10:23:00.310Z,4.80
2023-01-29T10:25:31.394Z,3.92
2023-01-29T10:28:03.539Z,4.80
2023-01-29T10:30:38.686Z,5.28
2023-01-29T10:33:48.721Z,5.30
2023-01-29T10:36:47.036Z,4.47
2023-01-29T10:39:21.479Z,4.72
2023-01-29T10:42:20.759Z,4.20
2023-01-29T10:45:16.935Z,4.25
2023-01-29T10:48:26.364Z,4.65
2023-01-29T10:50:57.945Z,3.78
2023-01-29T10:54:02.358Z,3.78
2023-01-29T10:56:41.948Z,3.77
2023-01-29T10:59:36.878Z,3.67
2023-01-29T11:02:17.945Z,3.70
2023-01-29T11:04:47.713Z,2.38
2023-01-29T11:07:18.035Z,3.10
2023-01-29T11:10:12.193Z,3.20
2023-01-29T11:12:39.813Z,4.10
2023-01-29T11:15:19.324Z,3.65
2023-01-29T11:18:06.985Z,3.40
2023-01-29T11:20:36.864Z,3.40
2023-01-29T11:23:03.986Z,3.00
2023-01-29T11:25:35.513Z,3.10
2023-01-29T11:28:03.228Z,2.50
2023-01-29T11:30:37.654Z,3.10
2023-01-29T11:33:09.086Z,3.33
2023-01-29T11:35:36.893Z,3.53
2023-01-29T11:38:30.055Z,2.97
2023-01-29T11:41:22.542Z,2.88
2023-01-29T11:43:51.645Z,3.13
2023-01-29T11:46:18.684Z,3.42
2023-01-29T11:48:50.360Z,2.90
2023-01-29T11:51:40.182Z,2.72
2023-01-29T11:54:16.384Z,2.88
2023-01-29T11:56:46.225Z,2.15
2023-01-29T11:59:44.490Z,3.15
2023-01-29T12:02:28.619Z,2.53
2023-01-29T12:05:03.858Z,2.20
2023-01-29T12:07:31.757Z,2.95
2023-01-29T12:10:00.280Z,2.47
2023-01-29T12:12:29.227Z,2.35
2023-01-29T12:15:08.888Z,2.37
2023-01-29T12:17:39.470Z,2.13
2023-01-29T12:20:21.142Z,2.60
2023-01-29T12:22:51.782Z,2.13
2023-01-29T12:25:31.608Z,2.45
2023-01-29T12:28:09.741Z,2.70
2023-01-29T12:30:44.950Z,2.78
2023-01-29T12:33:35.162Z,2.90
2023-01-29T12:36:19.740Z,2.35
2023-01-29T12:38:55.144Z,2.70
2023-01-29T12:41:39.953Z,3.10
2023-01-29T12:44:48.239Z,2.85
2023-01-29T12:47:25.920Z,2.60
2023-01-29T12:49:57.418Z,2.22
2023-01-29T12:52:45.112Z,2.08
2023-01-29T12:55:27.283Z,3.07
2023-01-29T12:58:06.484Z,2.33
2023-01-29T13:00:38.667Z,2.20
2023-01-29T13:03:24.222Z,2.17
2023-01-29T13:05:58.376Z,2.90
2023-01-29T13:08:39.603Z,1.37
2023-01-29T13:11:22.385Z,2.03
2023-01-29T13:13:54.616Z,2.10
2023-01-29T13:16:38.532Z,2.22
2023-01-29T13:19:06.600Z,1.90
2023-01-29T13:21:54.627Z,1.50
2023-01-29T13:24:25.543Z,1.30
2023-01-29T13:26:52.574Z,1.50
2023-01-29T13:29:31.072Z,1.38
2023-01-29T13:32:03.737Z,1.35
2023-01-29T13:34:52.865Z,0.93
2023-01-29T13:37:35.508Z,1.02
2023-01-29T13:40:05.805Z,1.17
2023-01-29T13:42:41.042Z,1.00
2023-01-29T13:45:23.219Z,1.10
2023-01-29T13:47:51.749Z,0.90
2023-01-29T13:50:37.386Z,0.90
2023-01-29T13:53:09.875Z,1.05
2023-01-29T13:55:43.665Z,1.00
2023-01-29T13:58:20.284Z,0.88
2023-01-29T14:00:51.270Z,0.93
2023-01-29T14:03:17.948Z,1.02
2023-01-29T14:05:58.139Z,1.08
2023-01-29T14:08:44.397Z,1.13
2023-01-29T14:11:16.875Z,0.90
2023-01-29T14:13:48.542Z,1.10
2023-01-29T14:16:15.348Z,0.88
2023-01-29T14:18:55.651Z,1.05
2023-01-29T14:21:31.936Z,0.90
2023-01-29T14:24:19.712Z,0.90
2023-01-29T14:26:49.534Z,1.10
2023-01-29T14:29:29.056Z,0.90
2023-01-29T14:32:06.938Z,1.13
2023-01-29T14:34:44.931Z,0.85
2023-01-29T14:37:21.411Z,0.60
2023-01-29T14:39:53.079Z,0.83
2023-01-29T14:42:23.061Z,0.70
2023-01-29T14:44:55.870Z,0.85
2023-01-29T14:47:43.469Z,0.60
2023-01-29T14:50:18.834Z,0.77
2023-01-29T14:52:48.259Z,0.73
2023-01-29T14:55:40.815Z,0.73
2023-01-29T14:58:14.625Z,0.65
2023-01-29T15:00:45.179Z,0.80
2023-01-29T15:03:39.708Z,0.63
2023-01-29T15:06:09.805Z,0.50
2023-01-29T15:08:43.879Z,0.40
2023-01-29T15:11:51.655Z,0.57
2023-01-29T15:14:28.819Z,0.77
2023-01-29T15:17:23.673Z,0.88
2023-01-29T15:19:50.315Z,0.70
2023-01-29T15:22:22.007Z,1.08
2023-01-29T15:25:04.877Z,1.10
2023-01-29T15:27:32.300Z,0.52
2023-01-29T15:30:06.178Z,0.75
2023-01-29T15:32:36.024Z,0.80
2023-01-29T15:35:09.203Z,1.25
2023-01-29T15:37:37.023Z,1.40
2023-01-29T15:40:14.834Z,0.98
2023-01-29T15:42:48.633Z,0.80
2023-01-29T15:45:31.104Z,0.70
2023-01-29T15:48:05.702Z,0.77
2023-01-29T15:50:36.968Z,0.80
2023-01-29T15:53:08.134Z,0.93
2023-01-29T15:55:36.128Z,0.90
2023-01-29T15:58:03.098Z,0.80
2023-01-29T16:00:30.635Z,1.05
2023-01-29T16:02:58.496Z,0.80
2023-01-29T16:05:30.984Z,0.82
2023-01-29T16:07:57.987Z,0.80
2023-01-29T16:10:27.985Z,1.13
2023-01-29T16:12:57.846Z,1.30
2023-01-29T16:15:32.877Z,1.30
2023-01-29T16:18:04.474Z,1.08
2023-01-29T16:20:41.501Z,1.10
2023-01-29T16:23:16.875Z,1.20
2023-01-29T16:25:44.078Z,1.38
2023-01-29T16:28:11.452Z,1.08
2023-01-29T16:30:38.857Z,1.27
2023-01-29T16:33:07.944Z,1.10
2023-01-29T16:35:35.935Z,1.10
2023-01-29T16:38:14.645Z,0.50
2023-01-29T16:41:11.306Z,1.02
2023-01-29T16:43:50.374Z,0.85
2023-01-29T16:46:26.006Z,1.10
2023-01-29T16:48:53.792Z,1.00
2023-01-29T16:51:28.446Z,1.00
2023-01-29T16:54:07.448Z,1.17
2023-01-29T16:56:35.245Z,1.00
2023-01-29T16:59:05.907Z,0.90
2023-01-29T17:01:36.035Z,0.90
2023-01-29T17:04:10.245Z,0.90
2023-01-29T17:06:40.059Z,0.80
2023-01-29T17:09:07.608Z,1.00
2023-01-29T17:11:43.762Z,1.17
2023-01-29T17:14:19.335Z,1.43
2023-01-29T17:16:53.325Z,1.60
2023-01-29T17:19:20.745Z,1.40
2023-01-29T17:21:47.881Z,1.75
2023-01-29T17:24:14.563Z,1.25
2023-01-29T17:26:41.436Z,1.30
2023-01-29T17:29:15.579Z,0.98
2023-01-29T17:31:43.249Z,1.02
2023-01-29T17:34:14.696Z,1.10
2023-01-29T17:36:43.341Z,1.30
2023-01-29T17:39:21.144Z,1.97
2023-01-29T17:41:51.084Z,1.30
2023-01-29T17:44:18.477Z,1.42
2023-01-29T17:46:46.199Z,2.17
2023-01-29T17:49:30.036Z,1.10
2023-01-29T17:51:57.358Z,1.00
2023-01-29T17:54:25.554Z,0.50
2023-01-29T17:56:53.424Z,0.75
2023-01-29T17:59:23.503Z,0.57
2023-01-29T18:01:51.390Z,0.50
2023-01-29T18:04:18.118Z,0.50
2023-01-29T18:06:50.901Z,0.35
2023-01-29T18:09:22.985Z,0.43
2023-01-29T18:11:50.927Z,0.80
2023-01-29T18:14:18.183Z,1.10
2023-01-29T18:16:45.213Z,1.10
2023-01-29T18:19:17.030Z,1.13
2023-01-29T18:21:43.604Z,1.00
2023-01-29T18:24:12.277Z,0.93
2023-01-29T18:26:38.807Z,1.20
2023-01-29T18:29:05.702Z,1.03
2023-01-29T18:31:32.497Z,0.95
2023-01-29T18:33:59.067Z,1.20
2023-01-29T18:36:25.847Z,0.93
2023-01-29T18:38:52.470Z,0.77
2023-01-29T18:41:19.346Z,0.80
2023-01-29T18:43:45.948Z,1.38
2023-01-29T18:46:12.574Z,1.08
2023-01-29T18:48:41.573Z,1.40
2023-01-29T18:51:08.912Z,1.30
2023-01-29T18:53:35.473Z,0.97
2023-01-29T18:56:05.119Z,1.70
2023-01-29T18:58:36.697Z,1.95
2023-01-29T19:01:11.647Z,1.38
2023-01-29T19:03:39.454Z,1.10
2023-01-29T19:06:08.932Z,1.10
2023-01-29T19:08:36.153Z,1.20
2023-01-29T19:11:05.572Z,1.23
2023-01-29T19:13:32.439Z,1.20
2023-01-29T19:15:59.119Z,1.30
2023-01-29T19:18:26.616Z,1.53
2023-01-29T19:20:54.192Z,1.10
2023-01-29T19:23:21.640Z,1.23
2023-01-29T19:25:51.158Z,1.10
2023-01-29T19:28:17.745Z,2.05
2023-01-29T19:30:44.346Z,1.57
2023-01-29T19:33:11.228Z,0.90
2023-01-29T19:35:37.832Z,1.30
2023-01-29T19:38:05.034Z,1.20
2023-01-29T19:40:31.659Z,1.50
2023-01-29T19:42:58.814Z,1.60
2023-01-29T19:45:49.928Z,1.40
2023-01-29T19:48:14.649Z,1.50
2023-01-29T19:50:42.412Z,1.00
2023-01-29T19:53:09.107Z,0.90
2023-01-29T19:55:35.713Z,1.30
2023-01-29T19:58:03.558Z,2.03
2023-01-29T20:00:30.610Z,1.63
2023-01-29T20:02:57.248Z,0.82
2023-01-29T20:05:24.144Z,1.30
2023-01-29T20:07:54.026Z,1.27
2023-01-29T20:10:20.882Z,1.45
2023-01-29T20:12:47.642Z,1.30
2023-01-29T20:15:15.260Z,1.40
2023-01-29T20:17:41.992Z,1.30
2023-01-29T20:20:11.524Z,1.40
2023-01-29T20:22:38.067Z,1.33
2023-01-29T20:25:04.805Z,1.10
2023-01-29T20:27:31.290Z,1.25
2023-01-29T20:30:00.021Z,1.25
2023-01-29T20:32:26.618Z,1.07
2023-01-29T20:34:53.131Z,1.00
2023-01-29T20:37:19.850Z,1.50
2023-01-29T20:39:46.660Z,1.30
2023-01-29T20:42:13.435Z,1.48
2023-01-29T20:44:39.935Z,1.20
2023-01-29T20:47:06.513Z,1.00
2023-01-29T20:49:33.017Z,1.42
2023-01-29T20:51:59.590Z,1.23
2023-01-29T20:54:26.281Z,1.50
2023-01-29T20:56:53.005Z,1.70
2023-01-29T20:59:19.957Z,1.95
2023-01-29T21:01:46.782Z,1.40
2023-01-29T21:04:13.426Z,1.20
2023-01-29T21:06:40.064Z,1.17
2023-01-29T21:09:06.690Z,0.90
2023-01-29T21:11:33.725Z,1.65
2023-01-29T21:14:02.001Z,1.65
2023-01-29T21:16:29.057Z,1.70
2023-01-29T21:18:57.018Z,1.40
2023-01-29T21:21:24.100Z,1.37
2023-01-29T21:23:50.703Z,2.00
2023-01-29T21:26:17.212Z,1.52
2023-01-29T21:28:43.871Z,1.80
2023-01-29T21:31:12.223Z,1.90
2023-01-29T21:33:38.874Z,1.30
2023-01-29T21:36:06.523Z,1.75
2023-01-29T21:38:33.240Z,1.85
2023-01-29T21:41:05.075Z,1.77
2023-01-29T21:43:31.698Z,1.38
2023-01-29T21:46:00.268Z,1.80
2023-01-29T21:48:27.125Z,1.40
2023-01-29T21:50:53.843Z,1.50
2023-01-29T21:53:20.705Z,1.33
2023-01-29T21:55:47.489Z,1.75
2023-01-29T21:58:14.703Z,2.07
2023-01-29T22:00:41.512Z,1.30
2023-01-29T22:03:08.354Z,1.50
2023-01-29T22:05:35.365Z,1.80
2023-01-29T22:08:02.490Z,2.25
2023-01-29T22:10:30.552Z,1.60
2023-01-29T22:12:59.794Z,1.60
2023-01-29T22:15:26.350Z,1.30
2023-01-29T22:17:53.451Z,2.47
2023-01-29T22:20:20.331Z,1.60
2023-01-29T22:22:47.024Z,1.50
2023-01-29T22:25:13.538Z,1.88
2023-01-29T22:27:40.369Z,1.17
2023-01-29T22:30:07.697Z,1.45
2023-01-29T22:32:34.585Z,1.50
2023-01-29T22:35:01.184Z,1.40
2023-01-29T22:37:27.886Z,1.33
2023-01-29T22:39:54.484Z,1.90
2023-01-29T22:42:21.150Z,1.67
2023-01-29T22:44:48.602Z,1.58
2023-01-29T22:47:15.676Z,2.23
2023-01-29T22:49:44.521Z,1.40
2023-01-29T22:52:11.512Z,2.20
2023-01-29T22:54:43.038Z,1.52
2023-01-29T22:57:11.246Z,3.05
2023-01-29T22:59:38.571Z,2.23
2023-01-29T23:02:07.309Z,2.13
2023-01-29T23:04:34.086Z,2.40
2023-01-29T23:07:00.779Z,2.58
2023-01-29T23:09:27.396Z,2.15
2023-01-29T23:11:53.990Z,2.10
2023-01-29T23:14:20.561Z,2.72
2023-01-29T23:16:47.329Z,2.80
2023-01-29T23:19:13.933Z,2.70
2023-01-29T23:21:40.496Z,2.38
2023-01-29T23:24:08.301Z,3.37
2023-01-29T23:26:54.061Z,2.35
2023-01-29T23:29:20.946Z,2.65
2023-01-29T23:31:47.656Z,2.10
2023-01-29T23:34:15.098Z,2.00
2023-01-29T23:36:42.263Z,1.87
2023-01-29T23:39:08.817Z,1.75
2023-01-29T23:41:35.423Z,1.95
2023-01-29T23:44:02.004Z,1.67
2023-01-29T23:46:28.646Z,1.85
2023-01-29T23:48:55.234Z,2.20
2023-01-29T23:51:21.822Z,2.03
2023-01-29T23:53:48.307Z,1.55
2023-01-29T23:56:14.923Z,1.80
2023-01-29T23:58:41.503Z,1.70
